sensor_id;sensor_type;location;lat;lon;timestamp;P1;durP1;ratioP1;P2;durP2;ratioP2
50717;SDS011;60557;51.350;12.410;2023-03-30T00:00:11;6.03;;;2.83;;
50717;SDS011;60557;51.350;12.410;2023-03-30T00:02:47;4.85;;;2.88;;
50717;SDS011;60557;51.350;12.410;2023-03-30T00:05:15;5.63;;;2.25;;
50717;SDS011;60557;51.350;12.410;2023-03-30T00:07:41;6.70;;;3.03;;
50717;SDS011;60557;51.350;12.410;2023-03-30T00:10:09;5.63;;;2.22;;
50717;SDS011;60557;51.350;12.410;2023-03-30T00:12:38;6.20;;;2.95;;
50717;SDS011;60557;51.350;12.410;2023-03-30T00:15:06;4.97;;;2.63;;
50717;SDS011;60557;51.350;12.410;2023-03-30T00:17:33;4.90;;;2.80;;
50717;SDS011;60557;51.350;12.410;2023-03-30T00:20:02;4.35;;;2.20;;
50717;SDS011;60557;51.350;12.410;2023-03-30T00:22:35;3.75;;;2.25;;
50717;SDS011;60557;51.350;12.410;2023-03-30T00:25:01;4.38;;;2.13;;
50717;SDS011;60557;51.350;12.410;2023-03-30T00:27:27;3.75;;;1.98;;
50717;SDS011;60557;51.350;12.410;2023-03-30T00:29:53;5.43;;;2.22;;
50717;SDS011;60557;51.350;12.410;2023-03-30T00:32:20;4.85;;;2.58;;
50717;SDS011;60557;51.350;12.410;2023-03-30T00:34:46;4.32;;;2.47;;
50717;SDS011;60557;51.350;12.410;2023-03-30T00:37:12;5.63;;;2.17;;
50717;SDS011;60557;51.350;12.410;2023-03-30T00:39:39;4.85;;;2.13;;
50717;SDS011;60557;51.350;12.410;2023-03-30T00:42:05;6.65;;;2.70;;
50717;SDS011;60557;51.350;12.410;2023-03-30T00:47:16;6.63;;;2.83;;
50717;SDS011;60557;51.350;12.410;2023-03-30T00:49:44;8.18;;;2.60;;
50717;SDS011;60557;51.350;12.410;2023-03-30T00:52:11;10.48;;;2.63;;
50717;SDS011;60557;51.350;12.410;2023-03-30T00:54:37;12.32;;;2.88;;
50717;SDS011;60557;51.350;12.410;2023-03-30T00:57:06;6.13;;;2.50;;
50717;SDS011;60557;51.350;12.410;2023-03-30T00:59:32;7.22;;;3.10;;
50717;SDS011;60557;51.350;12.410;2023-03-30T01:02:01;8.82;;;2.65;;
50717;SDS011;60557;51.350;12.410;2023-03-30T01:04:30;4.65;;;2.45;;
50717;SDS011;60557;51.350;12.410;2023-03-30T01:06:56;6.93;;;2.50;;
50717;SDS011;60557;51.350;12.410;2023-03-30T01:09:22;6.57;;;2.30;;
50717;SDS011;60557;51.350;12.410;2023-03-30T01:11:50;4.95;;;2.30;;
50717;SDS011;60557;51.350;12.410;2023-03-30T01:14:16;6.93;;;2.70;;
50717;SDS011;60557;51.350;12.410;2023-03-30T01:22:05;4.03;;;2.28;;
50717;SDS011;60557;51.350;12.410;2023-03-30T01:28:01;4.63;;;2.42;;
50717;SDS011;60557;51.350;12.410;2023-03-30T01:38:13;5.13;;;2.35;;
50717;SDS011;60557;51.350;12.410;2023-03-30T01:43:33;4.03;;;2.00;;
50717;SDS011;60557;51.350;12.410;2023-03-30T01:46:03;10.55;;;2.90;;
50717;SDS011;60557;51.350;12.410;2023-03-30T01:48:39;4.20;;;2.33;;
50717;SDS011;60557;51.350;12.410;2023-03-30T01:51:11;4.93;;;2.30;;
50717;SDS011;60557;51.350;12.410;2023-03-30T01:56:30;3.83;;;2.35;;
50717;SDS011;60557;51.350;12.410;2023-03-30T01:58:59;4.32;;;2.33;;
50717;SDS011;60557;51.350;12.410;2023-03-30T02:01:27;5.07;;;2.73;;
50717;SDS011;60557;51.350;12.410;2023-03-30T02:03:57;6.17;;;2.37;;
50717;SDS011;60557;51.350;12.410;2023-03-30T02:09:03;4.93;;;2.10;;
50717;SDS011;60557;51.350;12.410;2023-03-30T02:11:30;3.85;;;2.00;;
50717;SDS011;60557;51.350;12.410;2023-03-30T02:13:58;6.55;;;1.98;;
50717;SDS011;60557;51.350;12.410;2023-03-30T02:16:30;5.47;;;2.95;;
50717;SDS011;60557;51.350;12.410;2023-03-30T02:18:56;7.90;;;2.67;;
50717;SDS011;60557;51.350;12.410;2023-03-30T02:21:25;6.40;;;2.42;;
50717;SDS011;60557;51.350;12.410;2023-03-30T02:23:52;10.27;;;2.20;;
50717;SDS011;60557;51.350;12.410;2023-03-30T02:26:19;10.02;;;3.00;;
50717;SDS011;60557;51.350;12.410;2023-03-30T02:28:49;5.72;;;2.70;;
50717;SDS011;60557;51.350;12.410;2023-03-30T02:31:18;9.13;;;2.88;;
50717;SDS011;60557;51.350;12.410;2023-03-30T02:39:06;7.53;;;2.63;;
50717;SDS011;60557;51.350;12.410;2023-03-30T02:44:14;4.85;;;2.35;;
50717;SDS011;60557;51.350;12.410;2023-03-30T02:47:06;5.00;;;2.30;;
50717;SDS011;60557;51.350;12.410;2023-03-30T02:54:46;7.05;;;2.08;;
50717;SDS011;60557;51.350;12.410;2023-03-30T02:57:20;6.95;;;2.30;;
50717;SDS011;60557;51.350;12.410;2023-03-30T03:00:10;5.53;;;2.95;;
50717;SDS011;60557;51.350;12.410;2023-03-30T03:02:53;7.90;;;2.13;;
50717;SDS011;60557;51.350;12.410;2023-03-30T03:05:23;5.07;;;2.67;;
50717;SDS011;60557;51.350;12.410;2023-03-30T03:07:50;4.72;;;2.00;;
50717;SDS011;60557;51.350;12.410;2023-03-30T03:10:17;5.38;;;2.40;;
50717;SDS011;60557;51.350;12.410;2023-03-30T03:12:48;4.43;;;2.08;;
50717;SDS011;60557;51.350;12.410;2023-03-30T03:15:15;6.10;;;2.20;;
50717;SDS011;60557;51.350;12.410;2023-03-30T03:17:43;4.07;;;2.58;;
50717;SDS011;60557;51.350;12.410;2023-03-30T03:20:10;5.25;;;2.20;;
50717;SDS011;60557;51.350;12.410;2023-03-30T03:22:37;9.95;;;2.08;;
50717;SDS011;60557;51.350;12.410;2023-03-30T03:25:03;4.40;;;2.00;;
50717;SDS011;60557;51.350;12.410;2023-03-30T03:27:30;9.63;;;2.55;;
50717;SDS011;60557;51.350;12.410;2023-03-30T03:29:56;5.47;;;1.98;;
50717;SDS011;60557;51.350;12.410;2023-03-30T03:32:24;6.53;;;2.05;;
50717;SDS011;60557;51.350;12.410;2023-03-30T03:34:53;4.50;;;2.10;;
50717;SDS011;60557;51.350;12.410;2023-03-30T03:37:19;6.95;;;2.65;;
50717;SDS011;60557;51.350;12.410;2023-03-30T03:39:45;6.45;;;2.10;;
50717;SDS011;60557;51.350;12.410;2023-03-30T03:42:11;3.35;;;1.92;;
50717;SDS011;60557;51.350;12.410;2023-03-30T03:44:40;7.15;;;2.65;;
50717;SDS011;60557;51.350;12.410;2023-03-30T03:47:06;4.85;;;1.92;;
50717;SDS011;60557;51.350;12.410;2023-03-30T03:49:32;3.47;;;1.77;;
50717;SDS011;60557;51.350;12.410;2023-03-30T03:51:58;7.63;;;2.10;;
50717;SDS011;60557;51.350;12.410;2023-03-30T03:54:24;6.93;;;2.33;;
50717;SDS011;60557;51.350;12.410;2023-03-30T03:56:52;5.70;;;2.92;;
50717;SDS011;60557;51.350;12.410;2023-03-30T03:59:18;6.13;;;2.35;;
50717;SDS011;60557;51.350;12.410;2023-03-30T04:01:44;5.30;;;2.70;;
50717;SDS011;60557;51.350;12.410;2023-03-30T04:04:10;8.00;;;1.67;;
50717;SDS011;60557;51.350;12.410;2023-03-30T04:06:36;3.40;;;1.65;;
50717;SDS011;60557;51.350;12.410;2023-03-30T04:09:02;4.05;;;1.33;;
50717;SDS011;60557;51.350;12.410;2023-03-30T04:11:28;7.07;;;1.70;;
50717;SDS011;60557;51.350;12.410;2023-03-30T04:13:54;5.22;;;1.75;;
50717;SDS011;60557;51.350;12.410;2023-03-30T04:16:21;4.03;;;1.35;;
50717;SDS011;60557;51.350;12.410;2023-03-30T04:18:47;4.53;;;2.03;;
50717;SDS011;60557;51.350;12.410;2023-03-30T04:21:15;5.43;;;1.80;;
50717;SDS011;60557;51.350;12.410;2023-03-30T04:23:41;5.28;;;2.13;;
50717;SDS011;60557;51.350;12.410;2023-03-30T04:26:12;5.75;;;1.83;;
50717;SDS011;60557;51.350;12.410;2023-03-30T04:28:40;4.72;;;1.77;;
50717;SDS011;60557;51.350;12.410;2023-03-30T04:31:06;6.07;;;2.22;;
50717;SDS011;60557;51.350;12.410;2023-03-30T04:33:39;6.55;;;2.30;;
50717;SDS011;60557;51.350;12.410;2023-03-30T04:36:17;5.93;;;1.92;;
50717;SDS011;60557;51.350;12.410;2023-03-30T04:38:43;10.48;;;2.45;;
50717;SDS011;60557;51.350;12.410;2023-03-30T04:41:22;6.82;;;2.40;;
50717;SDS011;60557;51.350;12.410;2023-03-30T04:43:50;3.88;;;1.63;;
50717;SDS011;60557;51.350;12.410;2023-03-30T04:46:16;4.28;;;1.85;;
50717;SDS011;60557;51.350;12.410;2023-03-30T04:48:44;15.60;;;7.72;;
50717;SDS011;60557;51.350;12.410;2023-03-30T04:51:10;31.02;;;18.27;;
50717;SDS011;60557;51.350;12.410;2023-03-30T04:53:39;51.72;;;28.63;;
50717;SDS011;60557;51.350;12.410;2023-03-30T04:56:08;39.92;;;22.73;;
50717;SDS011;60557;51.350;12.410;2023-03-30T04:58:35;24.80;;;14.27;;
50717;SDS011;60557;51.350;12.410;2023-03-30T05:01:03;16.17;;;9.45;;
50717;SDS011;60557;51.350;12.410;2023-03-30T05:03:32;9.60;;;5.68;;
50717;SDS011;60557;51.350;12.410;2023-03-30T05:05:58;5.72;;;3.33;;
50717;SDS011;60557;51.350;12.410;2023-03-30T05:08:25;7.30;;;2.05;;
50717;SDS011;60557;51.350;12.410;2023-03-30T05:10:53;4.85;;;1.45;;
50717;SDS011;60557;51.350;12.410;2023-03-30T05:13:25;3.65;;;1.60;;
50717;SDS011;60557;51.350;12.410;2023-03-30T05:15:54;5.80;;;2.03;;
50717;SDS011;60557;51.350;12.410;2023-03-30T05:18:23;10.05;;;1.70;;
50717;SDS011;60557;51.350;12.410;2023-03-30T05:20:49;7.05;;;1.65;;
50717;SDS011;60557;51.350;12.410;2023-03-30T05:23:18;6.05;;;1.35;;
50717;SDS011;60557;51.350;12.410;2023-03-30T05:25:45;2.83;;;1.33;;
50717;SDS011;60557;51.350;12.410;2023-03-30T05:28:14;4.90;;;1.98;;
50717;SDS011;60557;51.350;12.410;2023-03-30T05:30:41;7.80;;;2.65;;
50717;SDS011;60557;51.350;12.410;2023-03-30T05:33:07;6.47;;;2.25;;
50717;SDS011;60557;51.350;12.410;2023-03-30T05:35:35;4.70;;;2.15;;
50717;SDS011;60557;51.350;12.410;2023-03-30T05:38:01;4.95;;;2.08;;
50717;SDS011;60557;51.350;12.410;2023-03-30T05:40:28;5.57;;;2.15;;
50717;SDS011;60557;51.350;12.410;2023-03-30T05:42:57;7.82;;;2.20;;
50717;SDS011;60557;51.350;12.410;2023-03-30T05:45:23;4.25;;;2.13;;
50717;SDS011;60557;51.350;12.410;2023-03-30T05:47:51;9.13;;;2.50;;
50717;SDS011;60557;51.350;12.410;2023-03-30T05:50:17;4.97;;;1.83;;
50717;SDS011;60557;51.350;12.410;2023-03-30T05:52:43;9.40;;;2.40;;
50717;SDS011;60557;51.350;12.410;2023-03-30T05:55:09;6.88;;;2.10;;
50717;SDS011;60557;51.350;12.410;2023-03-30T05:57:39;7.03;;;2.55;;
50717;SDS011;60557;51.350;12.410;2023-03-30T06:00:05;10.32;;;2.60;;
50717;SDS011;60557;51.350;12.410;2023-03-30T06:02:34;9.18;;;2.60;;
50717;SDS011;60557;51.350;12.410;2023-03-30T06:05:00;7.10;;;2.50;;
50717;SDS011;60557;51.350;12.410;2023-03-30T06:07:26;12.80;;;3.30;;
50717;SDS011;60557;51.350;12.410;2023-03-30T06:09:53;3.53;;;1.45;;
50717;SDS011;60557;51.350;12.410;2023-03-30T06:12:21;6.32;;;2.70;;
50717;SDS011;60557;51.350;12.410;2023-03-30T06:14:47;7.75;;;2.70;;
50717;SDS011;60557;51.350;12.410;2023-03-30T06:17:16;13.18;;;2.72;;
50717;SDS011;60557;51.350;12.410;2023-03-30T06:19:42;10.80;;;2.47;;
50717;SDS011;60557;51.350;12.410;2023-03-30T06:22:08;5.97;;;2.45;;
50717;SDS011;60557;51.350;12.410;2023-03-30T06:24:35;4.57;;;1.65;;
50717;SDS011;60557;51.350;12.410;2023-03-30T06:27:01;16.00;;;2.03;;
50717;SDS011;60557;51.350;12.410;2023-03-30T06:29:27;6.55;;;2.47;;
50717;SDS011;60557;51.350;12.410;2023-03-30T06:31:53;9.48;;;2.65;;
50717;SDS011;60557;51.350;12.410;2023-03-30T06:34:20;10.15;;;2.65;;
50717;SDS011;60557;51.350;12.410;2023-03-30T06:36:46;10.57;;;2.08;;
50717;SDS011;60557;51.350;12.410;2023-03-30T06:39:12;8.90;;;2.10;;
50717;SDS011;60557;51.350;12.410;2023-03-30T06:41:39;8.93;;;2.83;;
50717;SDS011;60557;51.350;12.410;2023-03-30T06:44:05;5.57;;;1.83;;
50717;SDS011;60557;51.350;12.410;2023-03-30T06:46:34;15.18;;;2.70;;
50717;SDS011;60557;51.350;12.410;2023-03-30T06:49:00;5.65;;;2.15;;
50717;SDS011;60557;51.350;12.410;2023-03-30T06:51:28;9.70;;;1.90;;
50717;SDS011;60557;51.350;12.410;2023-03-30T06:53:55;8.95;;;2.05;;
50717;SDS011;60557;51.350;12.410;2023-03-30T06:56:21;5.90;;;1.98;;
50717;SDS011;60557;51.350;12.410;2023-03-30T06:58:50;8.75;;;2.28;;
50717;SDS011;60557;51.350;12.410;2023-03-30T07:01:16;14.30;;;2.83;;
50717;SDS011;60557;51.350;12.410;2023-03-30T07:03:45;10.15;;;2.40;;
50717;SDS011;60557;51.350;12.410;2023-03-30T07:06:14;9.95;;;1.77;;
50717;SDS011;60557;51.350;12.410;2023-03-30T07:08:40;9.93;;;2.00;;
50717;SDS011;60557;51.350;12.410;2023-03-30T07:11:08;5.20;;;1.48;;
50717;SDS011;60557;51.350;12.410;2023-03-30T07:13:34;7.55;;;1.73;;
50717;SDS011;60557;51.350;12.410;2023-03-30T07:16:03;10.15;;;1.92;;
50717;SDS011;60557;51.350;12.410;2023-03-30T07:18:30;4.55;;;1.42;;
50717;SDS011;60557;51.350;12.410;2023-03-30T07:20:56;5.40;;;1.70;;
50717;SDS011;60557;51.350;12.410;2023-03-30T07:23:23;5.60;;;1.30;;
50717;SDS011;60557;51.350;12.410;2023-03-30T07:25:50;6.38;;;1.35;;
50717;SDS011;60557;51.350;12.410;2023-03-30T07:28:17;5.22;;;1.80;;
50717;SDS011;60557;51.350;12.410;2023-03-30T07:30:45;10.43;;;1.60;;
50717;SDS011;60557;51.350;12.410;2023-03-30T07:33:13;4.97;;;1.42;;
50717;SDS011;60557;51.350;12.410;2023-03-30T07:35:45;7.63;;;1.42;;
50717;SDS011;60557;51.350;12.410;2023-03-30T07:38:12;6.82;;;1.65;;
50717;SDS011;60557;51.350;12.410;2023-03-30T07:40:39;12.50;;;2.25;;
50717;SDS011;60557;51.350;12.410;2023-03-30T07:43:07;6.68;;;1.77;;
50717;SDS011;60557;51.350;12.410;2023-03-30T07:45:35;6.03;;;1.73;;
50717;SDS011;60557;51.350;12.410;2023-03-30T07:48:02;7.88;;;1.50;;
50717;SDS011;60557;51.350;12.410;2023-03-30T07:50:30;11.35;;;1.92;;
50717;SDS011;60557;51.350;12.410;2023-03-30T07:52:56;11.13;;;3.55;;
50717;SDS011;60557;51.350;12.410;2023-03-30T07:55:22;7.90;;;3.03;;
50717;SDS011;60557;51.350;12.410;2023-03-30T07:57:48;5.65;;;1.83;;
50717;SDS011;60557;51.350;12.410;2023-03-30T08:00:14;10.10;;;2.30;;
50717;SDS011;60557;51.350;12.410;2023-03-30T08:02:45;8.50;;;2.00;;
50717;SDS011;60557;51.350;12.410;2023-03-30T08:05:11;5.35;;;2.30;;
50717;SDS011;60557;51.350;12.410;2023-03-30T08:07:42;4.75;;;1.90;;
50717;SDS011;60557;51.350;12.410;2023-03-30T08:10:08;9.30;;;2.42;;
50717;SDS011;60557;51.350;12.410;2023-03-30T08:12:35;3.83;;;1.77;;
50717;SDS011;60557;51.350;12.410;2023-03-30T08:15:02;8.18;;;2.10;;
50717;SDS011;60557;51.350;12.410;2023-03-30T08:17:28;9.75;;;2.20;;
50717;SDS011;60557;51.350;12.410;2023-03-30T08:19:56;7.85;;;2.28;;
50717;SDS011;60557;51.350;12.410;2023-03-30T08:22:25;6.20;;;1.88;;
50717;SDS011;60557;51.350;12.410;2023-03-30T08:24:51;6.18;;;1.52;;
50717;SDS011;60557;51.350;12.410;2023-03-30T08:27:17;7.13;;;1.58;;
50717;SDS011;60557;51.350;12.410;2023-03-30T08:29:43;7.10;;;1.42;;
50717;SDS011;60557;51.350;12.410;2023-03-30T08:32:09;8.70;;;2.83;;
50717;SDS011;60557;51.350;12.410;2023-03-30T08:34:35;4.10;;;1.75;;
50717;SDS011;60557;51.350;12.410;2023-03-30T08:37:04;11.07;;;2.78;;
50717;SDS011;60557;51.350;12.410;2023-03-30T08:39:30;9.00;;;2.47;;
50717;SDS011;60557;51.350;12.410;2023-03-30T08:41:58;7.13;;;1.88;;
50717;SDS011;60557;51.350;12.410;2023-03-30T08:46:53;6.45;;;2.00;;
50717;SDS011;60557;51.350;12.410;2023-03-30T08:49:19;8.55;;;2.85;;
50717;SDS011;60557;51.350;12.410;2023-03-30T08:51:47;10.35;;;2.22;;
50717;SDS011;60557;51.350;12.410;2023-03-30T08:54:14;3.55;;;1.45;;
50717;SDS011;60557;51.350;12.410;2023-03-30T08:56:45;5.85;;;2.08;;
50717;SDS011;60557;51.350;12.410;2023-03-30T09:07:10;12.25;;;2.55;;
50717;SDS011;60557;51.350;12.410;2023-03-30T09:09:40;9.75;;;1.95;;
50717;SDS011;60557;51.350;12.410;2023-03-30T09:14:52;5.63;;;1.95;;
50717;SDS011;60557;51.350;12.410;2023-03-30T09:17:23;8.68;;;2.60;;
50717;SDS011;60557;51.350;12.410;2023-03-30T09:20:51;8.95;;;2.35;;
50717;SDS011;60557;51.350;12.410;2023-03-30T09:22:49;8.52;;;2.33;;
50717;SDS011;60557;51.350;12.410;2023-03-30T09:25:18;8.10;;;1.88;;
50717;SDS011;60557;51.350;12.410;2023-03-30T09:27:48;8.77;;;2.15;;
50717;SDS011;60557;51.350;12.410;2023-03-30T09:30:20;15.02;;;2.20;;
50717;SDS011;60557;51.350;12.410;2023-03-30T09:35:37;8.20;;;1.70;;
50717;SDS011;60557;51.350;12.410;2023-03-30T09:38:08;14.57;;;2.65;;
50717;SDS011;60557;51.350;12.410;2023-03-30T09:43:12;10.40;;;4.13;;
50717;SDS011;60557;51.350;12.410;2023-03-30T09:45:40;10.90;;;2.05;;
50717;SDS011;60557;51.350;12.410;2023-03-30T09:48:07;19.30;;;8.63;;
50717;SDS011;60557;51.350;12.410;2023-03-30T09:50:38;8.90;;;2.55;;
50717;SDS011;60557;51.350;12.410;2023-03-30T09:53:06;7.30;;;1.73;;
50717;SDS011;60557;51.350;12.410;2023-03-30T09:55:35;5.68;;;2.08;;
50717;SDS011;60557;51.350;12.410;2023-03-30T09:58:12;12.40;;;2.53;;
50717;SDS011;60557;51.350;12.410;2023-03-30T10:00:39;6.90;;;2.00;;
50717;SDS011;60557;51.350;12.410;2023-03-30T10:03:05;5.80;;;1.73;;
50717;SDS011;60557;51.350;12.410;2023-03-30T10:05:32;10.73;;;2.08;;
50717;SDS011;60557;51.350;12.410;2023-03-30T10:08:00;6.07;;;1.83;;
50717;SDS011;60557;51.350;12.410;2023-03-30T10:13:56;7.03;;;1.27;;
50717;SDS011;60557;51.350;12.410;2023-03-30T10:15:54;7.10;;;1.73;;
50717;SDS011;60557;51.350;12.410;2023-03-30T10:18:21;5.40;;;1.95;;
50717;SDS011;60557;51.350;12.410;2023-03-30T10:20:50;3.63;;;1.02;;
50717;SDS011;60557;51.350;12.410;2023-03-30T10:23:17;5.60;;;2.03;;
50717;SDS011;60557;51.350;12.410;2023-03-30T10:25:48;9.82;;;2.92;;
50717;SDS011;60557;51.350;12.410;2023-03-30T10:28:24;6.00;;;1.58;;
50717;SDS011;60557;51.350;12.410;2023-03-30T10:30:53;7.57;;;2.10;;
50717;SDS011;60557;51.350;12.410;2023-03-30T10:33:20;5.25;;;1.10;;
50717;SDS011;60557;51.350;12.410;2023-03-30T10:35:46;7.85;;;2.35;;
50717;SDS011;60557;51.350;12.410;2023-03-30T10:38:14;4.72;;;1.75;;
50717;SDS011;60557;51.350;12.410;2023-03-30T10:40:41;10.40;;;1.95;;
50717;SDS011;60557;51.350;12.410;2023-03-30T10:43:13;8.63;;;1.73;;
50717;SDS011;60557;51.350;12.410;2023-03-30T10:45:40;7.03;;;1.58;;
50717;SDS011;60557;51.350;12.410;2023-03-30T10:59:04;5.00;;;1.92;;
50717;SDS011;60557;51.350;12.410;2023-03-30T11:04:02;7.22;;;2.25;;
50717;SDS011;60557;51.350;12.410;2023-03-30T11:06:33;6.18;;;2.10;;
50717;SDS011;60557;51.350;12.410;2023-03-30T11:09:02;6.95;;;1.95;;
50717;SDS011;60557;51.350;12.410;2023-03-30T11:11:33;3.90;;;1.73;;
50717;SDS011;60557;51.350;12.410;2023-03-30T11:14:02;5.05;;;1.90;;
50717;SDS011;60557;51.350;12.410;2023-03-30T11:19:03;4.93;;;1.85;;
50717;SDS011;60557;51.350;12.410;2023-03-30T11:21:36;7.68;;;1.70;;
50717;SDS011;60557;51.350;12.410;2023-03-30T11:37:00;5.45;;;1.52;;
50717;SDS011;60557;51.350;12.410;2023-03-30T11:39:32;5.00;;;1.50;;
50717;SDS011;60557;51.350;12.410;2023-03-30T11:44:26;5.50;;;2.40;;
50717;SDS011;60557;51.350;12.410;2023-03-30T11:51:51;4.03;;;1.63;;
50717;SDS011;60557;51.350;12.410;2023-03-30T12:02:09;11.90;;;2.00;;
50717;SDS011;60557;51.350;12.410;2023-03-30T12:09:54;6.95;;;1.70;;
50717;SDS011;60557;51.350;12.410;2023-03-30T12:12:27;6.63;;;1.98;;
50717;SDS011;60557;51.350;12.410;2023-03-30T12:22:49;11.23;;;2.42;;
50717;SDS011;60557;51.350;12.410;2023-03-30T12:25:23;8.40;;;2.30;;
50717;SDS011;60557;51.350;12.410;2023-03-30T12:30:31;7.82;;;1.92;;
50717;SDS011;60557;51.350;12.410;2023-03-30T12:33:12;9.07;;;1.92;;
50717;SDS011;60557;51.350;12.410;2023-03-30T12:38:15;7.30;;;1.95;;
50717;SDS011;60557;51.350;12.410;2023-03-30T12:40:45;4.68;;;1.85;;
50717;SDS011;60557;51.350;12.410;2023-03-30T12:45:49;8.90;;;3.08;;
50717;SDS011;60557;51.350;12.410;2023-03-30T12:56:05;8.88;;;1.80;;
50717;SDS011;60557;51.350;12.410;2023-03-30T13:03:52;6.20;;;1.95;;
50717;SDS011;60557;51.350;12.410;2023-03-30T13:06:21;5.28;;;1.13;;
50717;SDS011;60557;51.350;12.410;2023-03-30T13:08:52;5.32;;;1.48;;
50717;SDS011;60557;51.350;12.410;2023-03-30T13:21:47;5.43;;;1.30;;
50717;SDS011;60557;51.350;12.410;2023-03-30T13:40:13;2.75;;;1.52;;
50717;SDS011;60557;51.350;12.410;2023-03-30T13:45:29;4.43;;;1.15;;
50717;SDS011;60557;51.350;12.410;2023-03-30T13:48:04;7.90;;;1.10;;
50717;SDS011;60557;51.350;12.410;2023-03-30T13:50:35;5.55;;;1.02;;
50717;SDS011;60557;51.350;12.410;2023-03-30T13:53:06;7.13;;;1.27;;
50717;SDS011;60557;51.350;12.410;2023-03-30T13:55:39;13.20;;;1.20;;
50717;SDS011;60557;51.350;12.410;2023-03-30T13:58:18;7.07;;;1.70;;
50717;SDS011;60557;51.350;12.410;2023-03-30T14:00:49;6.40;;;1.77;;
50717;SDS011;60557;51.350;12.410;2023-03-30T14:05:51;6.07;;;1.23;;
50717;SDS011;60557;51.350;12.410;2023-03-30T14:08:18;12.85;;;1.20;;
50717;SDS011;60557;51.350;12.410;2023-03-30T14:10:50;6.40;;;1.85;;
50717;SDS011;60557;51.350;12.410;2023-03-30T14:13:17;10.38;;;1.83;;
50717;SDS011;60557;51.350;12.410;2023-03-30T14:15:43;3.25;;;0.82;;
50717;SDS011;60557;51.350;12.410;2023-03-30T14:18:10;2.47;;;0.50;;
50717;SDS011;60557;51.350;12.410;2023-03-30T14:20:47;4.30;;;0.47;;
50717;SDS011;60557;51.350;12.410;2023-03-30T14:25:56;2.03;;;0.60;;
50717;SDS011;60557;51.350;12.410;2023-03-30T14:28:22;4.37;;;0.70;;
50717;SDS011;60557;51.350;12.410;2023-03-30T14:33:15;1.33;;;0.47;;
50717;SDS011;60557;51.350;12.410;2023-03-30T14:38:21;7.68;;;0.70;;
50717;SDS011;60557;51.350;12.410;2023-03-30T14:40:51;3.38;;;0.85;;
50717;SDS011;60557;51.350;12.410;2023-03-30T14:43:19;3.60;;;0.90;;
50717;SDS011;60557;51.350;12.410;2023-03-30T14:45:46;2.65;;;0.70;;
50717;SDS011;60557;51.350;12.410;2023-03-30T14:48:46;1.48;;;0.52;;
50717;SDS011;60557;51.350;12.410;2023-03-30T14:51:06;3.67;;;0.93;;
50717;SDS011;60557;51.350;12.410;2023-03-30T14:53:43;1.15;;;0.60;;
50717;SDS011;60557;51.350;12.410;2023-03-30T14:56:10;3.17;;;1.00;;
50717;SDS011;60557;51.350;12.410;2023-03-30T14:58:36;6.38;;;0.90;;
50717;SDS011;60557;51.350;12.410;2023-03-30T15:01:04;4.32;;;0.50;;
50717;SDS011;60557;51.350;12.410;2023-03-30T15:03:31;3.17;;;0.98;;
50717;SDS011;60557;51.350;12.410;2023-03-30T15:05:59;1.77;;;0.93;;
50717;SDS011;60557;51.350;12.410;2023-03-30T15:08:25;2.15;;;0.65;;
50717;SDS011;60557;51.350;12.410;2023-03-30T15:10:53;1.33;;;0.50;;
50717;SDS011;60557;51.350;12.410;2023-03-30T15:13:23;1.57;;;1.13;;
50717;SDS011;60557;51.350;12.410;2023-03-30T15:15:50;1.70;;;0.82;;
50717;SDS011;60557;51.350;12.410;2023-03-30T15:18:19;2.65;;;0.90;;
50717;SDS011;60557;51.350;12.410;2023-03-30T15:20:46;5.90;;;0.80;;
50717;SDS011;60557;51.350;12.410;2023-03-30T15:23:12;4.90;;;1.52;;
50717;SDS011;60557;51.350;12.410;2023-03-30T15:25:39;4.07;;;1.00;;
50717;SDS011;60557;51.350;12.410;2023-03-30T15:30:37;5.10;;;0.80;;
50717;SDS011;60557;51.350;12.410;2023-03-30T15:33:04;3.70;;;1.33;;
50717;SDS011;60557;51.350;12.410;2023-03-30T15:35:35;8.73;;;2.40;;
50717;SDS011;60557;51.350;12.410;2023-03-30T15:40:46;3.35;;;0.98;;
50717;SDS011;60557;51.350;12.410;2023-03-30T15:43:19;3.33;;;0.93;;
50717;SDS011;60557;51.350;12.410;2023-03-30T15:45:46;2.92;;;0.77;;
50717;SDS011;60557;51.350;12.410;2023-03-30T15:48:14;1.48;;;1.00;;
50717;SDS011;60557;51.350;12.410;2023-03-30T15:50:41;2.50;;;0.73;;
50717;SDS011;60557;51.350;12.410;2023-03-30T15:55:37;1.92;;;0.88;;
50717;SDS011;60557;51.350;12.410;2023-03-30T15:58:10;1.95;;;0.65;;
50717;SDS011;60557;51.350;12.410;2023-03-30T16:00:37;4.60;;;0.70;;
50717;SDS011;60557;51.350;12.410;2023-03-30T16:03:03;4.25;;;1.27;;
50717;SDS011;60557;51.350;12.410;2023-03-30T16:05:32;1.60;;;0.80;;
50717;SDS011;60557;51.350;12.410;2023-03-30T16:07:59;1.38;;;0.50;;
50717;SDS011;60557;51.350;12.410;2023-03-30T16:10:30;2.58;;;1.00;;
50717;SDS011;60557;51.350;12.410;2023-03-30T16:12:57;4.55;;;1.25;;
50717;SDS011;60557;51.350;12.410;2023-03-30T16:15:25;1.95;;;0.63;;
50717;SDS011;60557;51.350;12.410;2023-03-30T16:17:51;2.00;;;0.70;;
50717;SDS011;60557;51.350;12.410;2023-03-30T16:20:25;2.72;;;0.80;;
50717;SDS011;60557;51.350;12.410;2023-03-30T16:22:51;2.00;;;1.00;;
50717;SDS011;60557;51.350;12.410;2023-03-30T16:25:18;2.83;;;0.90;;
50717;SDS011;60557;51.350;12.410;2023-03-30T16:27:45;3.03;;;0.77;;
50717;SDS011;60557;51.350;12.410;2023-03-30T16:30:15;2.58;;;0.85;;
50717;SDS011;60557;51.350;12.410;2023-03-30T16:32:42;5.15;;;2.78;;
50717;SDS011;60557;51.350;12.410;2023-03-30T16:35:08;2.65;;;1.65;;
50717;SDS011;60557;51.350;12.410;2023-03-30T16:37:34;3.58;;;1.20;;
50717;SDS011;60557;51.350;12.410;2023-03-30T16:40:01;3.17;;;1.25;;
50717;SDS011;60557;51.350;12.410;2023-03-30T16:42:30;2.60;;;1.42;;
50717;SDS011;60557;51.350;12.410;2023-03-30T16:44:56;3.75;;;1.13;;
50717;SDS011;60557;51.350;12.410;2023-03-30T16:47:24;3.80;;;1.13;;
50717;SDS011;60557;51.350;12.410;2023-03-30T16:49:51;5.72;;;1.50;;
50717;SDS011;60557;51.350;12.410;2023-03-30T16:52:19;4.82;;;1.80;;
50717;SDS011;60557;51.350;12.410;2023-03-30T16:54:45;3.20;;;1.42;;
50717;SDS011;60557;51.350;12.410;2023-03-30T16:57:12;4.18;;;1.20;;
50717;SDS011;60557;51.350;12.410;2023-03-30T16:59:38;4.70;;;0.73;;
50717;SDS011;60557;51.350;12.410;2023-03-30T17:02:04;3.60;;;0.90;;
50717;SDS011;60557;51.350;12.410;2023-03-30T17:04:30;2.90;;;1.23;;
50717;SDS011;60557;51.350;12.410;2023-03-30T17:06:58;2.25;;;0.88;;
50717;SDS011;60557;51.350;12.410;2023-03-30T17:09:25;4.30;;;2.40;;
50717;SDS011;60557;51.350;12.410;2023-03-30T17:11:51;4.10;;;1.95;;
50717;SDS011;60557;51.350;12.410;2023-03-30T17:14:19;5.50;;;1.80;;
50717;SDS011;60557;51.350;12.410;2023-03-30T17:16:47;4.82;;;1.60;;
50717;SDS011;60557;51.350;12.410;2023-03-30T17:19:13;3.25;;;1.10;;
50717;SDS011;60557;51.350;12.410;2023-03-30T17:21:42;3.08;;;1.42;;
50717;SDS011;60557;51.350;12.410;2023-03-30T17:24:09;4.55;;;1.83;;
50717;SDS011;60557;51.350;12.410;2023-03-30T17:26:36;5.05;;;1.95;;
50717;SDS011;60557;51.350;12.410;2023-03-30T17:29:03;3.95;;;1.00;;
50717;SDS011;60557;51.350;12.410;2023-03-30T17:31:29;3.45;;;1.30;;
50717;SDS011;60557;51.350;12.410;2023-03-30T17:33:55;3.20;;;1.30;;
50717;SDS011;60557;51.350;12.410;2023-03-30T17:36:21;4.40;;;1.20;;
50717;SDS011;60557;51.350;12.410;2023-03-30T17:38:48;3.88;;;1.27;;
50717;SDS011;60557;51.350;12.410;2023-03-30T17:41:15;4.45;;;1.27;;
50717;SDS011;60557;51.350;12.410;2023-03-30T17:43:43;7.70;;;1.90;;
50717;SDS011;60557;51.350;12.410;2023-03-30T17:46:13;5.45;;;2.45;;